createdAt,value
2018-04-17T00:01:37.039Z,13.90
2018-04-17T00:04:05.224Z,13.90
2018-04-17T00:06:33.401Z,13.90
2018-04-17T00:09:01.581Z,13.90
2018-04-17T00:11:29.716Z,13.80
2018-04-17T00:13:57.855Z,13.70
2018-04-17T00:16:26.794Z,13.70
2018-04-17T00:18:54.956Z,13.60
2018-04-17T00:21:23.098Z,13.60
2018-04-17T00:23:52.021Z,13.50
2018-04-17T00:26:20.168Z,13.50
2018-04-17T00:28:48.315Z,13.50
2018-04-17T00:31:17.237Z,13.60
2018-04-17T00:33:45.413Z,13.50
2018-04-17T00:36:13.544Z,13.60
2018-04-17T00:38:41.681Z,13.50
2018-04-17T00:41:09.828Z,13.50
2018-04-17T00:43:38.749Z,13.50
2018-04-17T00:46:06.909Z,13.50
2018-04-17T00:48:35.056Z,13.60
2018-04-17T00:51:03.963Z,13.70
2018-04-17T00:53:55.240Z,13.60
2018-04-17T00:56:23.388Z,13.70
2018-04-17T00:58:51.527Z,13.70
2018-04-17T01:01:19.693Z,13.70
2018-04-17T01:03:48.617Z,13.80
2018-04-17T01:06:16.752Z,13.70
2018-04-17T01:08:45.662Z,13.70
2018-04-17T01:11:13.817Z,13.70
2018-04-17T01:13:42.725Z,13.70
2018-04-17T01:16:10.862Z,13.70
2018-04-17T01:18:39.044Z,13.70
2018-04-17T01:21:07.191Z,13.70
2018-04-17T01:23:35.335Z,13.70
2018-04-17T01:26:03.473Z,13.80
2018-04-17T01:28:32.387Z,13.80
2018-04-17T01:31:00.526Z,13.70
2018-04-17T01:33:28.690Z,13.80
2018-04-17T01:35:56.836Z,13.70
2018-04-17T01:38:25.008Z,13.80
2018-04-17T01:40:53.283Z,13.70
2018-04-17T01:43:21.477Z,13.70
2018-04-17T01:45:49.645Z,13.70
2018-04-17T01:48:17.820Z,13.70
2018-04-17T01:50:45.997Z,13.60
2018-04-17T01:53:14.196Z,13.70
2018-04-17T01:55:42.405Z,13.70
2018-04-17T01:58:10.580Z,13.60
2018-04-17T02:00:38.780Z,13.60
2018-04-17T02:03:06.961Z,13.60
2018-04-17T02:05:35.132Z,13.60
2018-04-17T02:08:03.356Z,13.50
2018-04-17T02:10:32.310Z,13.50
2018-04-17T02:13:00.488Z,13.40
2018-04-17T02:15:28.659Z,13.40
2018-04-17T02:17:56.840Z,13.40
2018-04-17T02:20:25.057Z,13.40
2018-04-17T02:22:54.038Z,13.40
2018-04-17T02:25:22.221Z,13.40
2018-04-17T02:27:51.155Z,13.40
2018-04-17T02:30:19.349Z,13.40
2018-04-17T02:32:47.531Z,13.40
2018-04-17T02:35:15.706Z,13.50
2018-04-17T02:37:43.901Z,13.40
2018-04-17T02:40:12.077Z,13.50
2018-04-17T02:42:41.180Z,13.40
2018-04-17T02:45:10.129Z,13.40
2018-04-17T02:47:38.392Z,13.40
2018-04-17T02:50:07.299Z,13.40
2018-04-17T02:52:35.472Z,13.40
2018-04-17T02:55:03.638Z,13.40
2018-04-17T02:57:31.810Z,13.40
2018-04-17T03:00:00.034Z,13.50
2018-04-17T03:02:28.989Z,13.40
2018-04-17T03:04:57.169Z,13.40
2018-04-17T03:07:25.339Z,13.40
2018-04-17T03:09:53.500Z,13.40
2018-04-17T03:12:21.675Z,13.40
2018-04-17T03:14:49.854Z,13.40
2018-04-17T03:17:18.031Z,13.40
2018-04-17T03:19:46.203Z,13.30
2018-04-17T03:22:14.380Z,13.40
2018-04-17T03:24:42.556Z,13.30
2018-04-17T03:27:10.740Z,13.30
2018-04-17T03:29:38.907Z,13.30
2018-04-17T03:32:07.070Z,13.30
2018-04-17T03:34:35.261Z,13.30
2018-04-17T03:37:03.443Z,13.30
2018-04-17T03:39:31.615Z,13.30
2018-04-17T03:41:59.822Z,13.30
2018-04-17T03:44:28.867Z,13.30
2018-04-17T03:46:57.043Z,13.20
2018-04-17T03:49:25.218Z,13.20
2018-04-17T03:51:53.417Z,13.20
2018-04-17T03:54:21.597Z,13.20
2018-04-17T03:56:49.772Z,13.30
2018-04-17T03:59:17.941Z,13.20
2018-04-17T04:01:46.130Z,13.30
2018-04-17T04:04:14.307Z,13.20
2018-04-17T04:06:42.479Z,13.20
2018-04-17T04:09:10.664Z,13.20
2018-04-17T04:11:39.603Z,13.20
2018-04-17T04:14:07.781Z,13.20
2018-04-17T04:16:53.712Z,13.20
2018-04-17T04:19:39.578Z,13.20
2018-04-17T04:22:25.523Z,13.20
2018-04-17T04:28:01.400Z,13.20
2018-04-17T04:30:29.586Z,13.20
2018-04-17T04:32:57.857Z,13.20
2018-04-17T04:35:26.030Z,13.20
2018-04-17T04:37:54.199Z,13.20
2018-04-17T04:40:22.399Z,13.20
2018-04-17T04:42:50.579Z,13.20
2018-04-17T04:45:18.773Z,13.20
2018-04-17T04:47:46.955Z,13.30
2018-04-17T04:50:15.133Z,13.30
2018-04-17T04:52:43.308Z,13.30
2018-04-17T04:55:11.472Z,13.30
2018-04-17T04:57:39.685Z,13.30
2018-04-17T05:00:07.852Z,13.30
2018-04-17T05:02:36.789Z,13.40
2018-04-17T05:05:04.993Z,13.30
2018-04-17T05:07:33.164Z,13.40
2018-04-17T05:10:01.337Z,13.40
2018-04-17T05:12:29.533Z,13.50
2018-04-17T05:14:57.715Z,13.50
2018-04-17T05:17:26.661Z,13.70
2018-04-17T05:19:54.853Z,13.60
2018-04-17T05:22:23.797Z,13.80
2018-04-17T05:24:52.738Z,13.80
2018-04-17T05:27:20.926Z,13.80
2018-04-17T05:29:49.124Z,13.80
2018-04-17T05:32:18.135Z,13.90
2018-04-17T05:34:46.329Z,13.80
2018-04-17T05:37:14.510Z,13.90
2018-04-17T05:39:42.717Z,13.90
2018-04-17T05:42:10.915Z,14.00
2018-04-17T05:44:39.859Z,14.00
2018-04-17T05:47:08.032Z,13.90
2018-04-17T05:49:36.213Z,14.00
2018-04-17T05:52:04.411Z,14.00
2018-04-17T05:54:32.592Z,14.00
2018-04-17T05:57:00.773Z,14.10
2018-04-17T05:59:29.716Z,14.20
2018-04-17T06:01:57.910Z,14.10
2018-04-17T06:04:26.086Z,14.30
2018-04-17T06:06:54.262Z,14.30
2018-04-17T06:09:22.459Z,14.30
2018-04-17T06:11:50.651Z,14.30
2018-04-17T06:14:19.587Z,14.40
2018-04-17T06:16:47.763Z,14.40
2018-04-17T06:19:15.965Z,14.40
2018-04-17T06:21:44.178Z,14.50
2018-04-17T06:24:13.118Z,14.60
2018-04-17T06:26:41.296Z,14.50
2018-04-17T06:29:09.475Z,14.60
2018-04-17T06:31:37.650Z,14.60
2018-04-17T06:34:05.825Z,14.60
2018-04-17T06:36:34.009Z,14.70
2018-04-17T06:39:02.176Z,14.70
2018-04-17T06:41:30.349Z,14.80
2018-04-17T06:43:58.518Z,14.80
2018-04-17T06:46:26.694Z,14.90
2018-04-17T06:48:54.878Z,15.00
2018-04-17T06:51:23.065Z,15.10
2018-04-17T06:53:51.269Z,15.30
2018-04-17T06:56:20.229Z,15.50
2018-04-17T06:58:48.396Z,15.50
2018-04-17T07:01:16.573Z,15.70
2018-04-17T07:03:44.751Z,15.80
2018-04-17T07:06:12.929Z,15.80
2018-04-17T07:08:41.109Z,15.80
2018-04-17T07:11:09.289Z,15.80
2018-04-17T07:13:38.257Z,16.00
2018-04-17T07:16:06.436Z,15.90
2018-04-17T07:18:35.380Z,16.20
2018-04-17T07:21:03.552Z,16.20
2018-04-17T07:23:31.753Z,16.20
2018-04-17T07:25:59.924Z,16.30
2018-04-17T07:28:28.096Z,16.40
2018-04-17T07:30:56.273Z,16.50
2018-04-17T07:33:24.452Z,16.60
2018-04-17T07:35:52.624Z,16.60
2018-04-17T07:38:20.790Z,16.80
2018-04-17T07:40:48.981Z,16.90
2018-04-17T07:43:17.153Z,17.10
2018-04-17T07:45:45.328Z,17.30
2018-04-17T07:48:31.444Z,17.40
2018-04-17T07:50:59.647Z,17.60
2018-04-17T07:53:28.577Z,17.90
2018-04-17T07:55:56.747Z,17.80
2018-04-17T07:58:24.926Z,18.00
2018-04-17T08:00:53.127Z,18.10
2018-04-17T08:03:21.293Z,18.20
2018-04-17T08:05:49.473Z,18.30
2018-04-17T08:08:17.676Z,18.50
2018-04-17T08:10:45.854Z,18.60
2018-04-17T08:13:14.801Z,18.70
2018-04-17T08:15:42.971Z,18.60
2018-04-17T08:18:11.141Z,18.60
2018-04-17T08:20:39.301Z,18.70
2018-04-17T08:23:07.485Z,18.80
2018-04-17T08:25:35.645Z,18.80
2018-04-17T08:28:03.816Z,18.90
2018-04-17T08:30:31.989Z,19.00
2018-04-17T08:33:00.164Z,19.00
2018-04-17T08:35:28.374Z,19.00
2018-04-17T08:37:56.594Z,19.10
2018-04-17T08:40:25.532Z,19.40
2018-04-17T08:42:53.692Z,19.30
2018-04-17T08:45:21.858Z,19.50
2018-04-17T08:47:50.048Z,19.60
2018-04-17T08:50:18.215Z,19.60
2018-04-17T08:52:46.378Z,19.70
2018-04-17T08:55:15.310Z,19.90
2018-04-17T08:57:43.513Z,19.90
2018-04-17T09:00:11.693Z,20.10
2018-04-17T09:02:39.868Z,20.30
2018-04-17T09:05:08.043Z,20.40
2018-04-17T09:07:36.216Z,20.50
2018-04-17T09:10:04.385Z,20.60
2018-04-17T09:12:32.568Z,20.70
2018-04-17T09:15:00.746Z,20.80
2018-04-17T09:17:29.712Z,20.90
2018-04-17T09:19:57.890Z,20.80
2018-04-17T09:22:26.060Z,21.10
2018-04-17T09:24:54.260Z,21.20
2018-04-17T09:27:22.429Z,21.30
2018-04-17T09:29:50.601Z,21.30
2018-04-17T09:32:19.005Z,21.10
2018-04-17T09:34:47.968Z,20.90
2018-04-17T09:37:16.923Z,20.80
2018-04-17T09:39:45.092Z,20.80
2018-04-17T09:42:13.262Z,20.90
2018-04-17T09:44:41.424Z,20.90
2018-04-17T09:47:09.610Z,20.90
2018-04-17T09:49:37.778Z,20.90
2018-04-17T09:52:05.945Z,21.10
2018-04-17T09:54:34.131Z,21.20
2018-04-17T09:57:02.293Z,21.10
2018-04-17T09:59:30.509Z,21.20
2018-04-17T10:01:58.683Z,21.20
2018-04-17T10:04:26.888Z,21.40
2018-04-17T10:06:55.064Z,21.70
2018-04-17T10:09:23.277Z,21.80
2018-04-17T10:11:51.442Z,22.00
2018-04-17T10:14:19.620Z,22.60
2018-04-17T10:16:47.799Z,23.30
2018-04-17T10:19:15.969Z,23.70
2018-04-17T10:21:44.143Z,23.80
2018-04-17T10:24:12.338Z,23.90
2018-04-17T10:26:40.516Z,23.90
2018-04-17T10:29:08.677Z,23.80
2018-04-17T10:31:36.876Z,23.90
2018-04-17T10:34:05.066Z,23.80
2018-04-17T10:36:33.242Z,23.70
2018-04-17T10:39:01.425Z,23.50
2018-04-17T10:41:29.601Z,23.50
2018-04-17T10:43:57.777Z,23.40
2018-04-17T10:46:25.994Z,23.40
2018-04-17T10:48:54.181Z,23.10
2018-04-17T10:51:22.374Z,23.10
2018-04-17T10:53:50.581Z,23.10
2018-04-17T10:56:18.733Z,23.10
2018-04-17T10:58:46.915Z,23.50
2018-04-17T11:01:15.091Z,23.60
2018-04-17T11:03:43.264Z,23.70
2018-04-17T11:06:12.966Z,23.60
2018-04-17T11:08:41.142Z,23.60
2018-04-17T11:11:09.382Z,23.70
2018-04-17T11:13:37.618Z,23.10
2018-04-17T11:16:05.798Z,23.10
2018-04-17T11:18:34.738Z,23.30
2018-04-17T11:21:03.142Z,23.20
2018-04-17T11:23:31.313Z,23.30
2018-04-17T11:25:59.485Z,23.40
2018-04-17T11:28:27.762Z,23.60
2018-04-17T11:30:55.932Z,23.60
2018-04-17T11:33:24.098Z,23.30
2018-04-17T11:35:52.397Z,23.10
2018-04-17T11:38:20.614Z,23.00
2018-04-17T11:40:48.798Z,22.90
2018-04-17T11:43:17.125Z,22.90
2018-04-17T11:45:45.687Z,23.10
2018-04-17T11:48:13.868Z,23.10
2018-04-17T11:50:43.313Z,23.00
2018-04-17T11:53:12.256Z,22.80
2018-04-17T11:55:40.427Z,22.70
2018-04-17T11:58:08.588Z,22.80
2018-04-17T12:00:36.753Z,22.80
2018-04-17T12:03:04.932Z,23.00
2018-04-17T12:05:33.101Z,23.10
2018-04-17T12:08:01.281Z,23.20
2018-04-17T12:10:29.469Z,23.30
2018-04-17T12:12:57.657Z,23.20
2018-04-17T12:15:25.846Z,23.20
2018-04-17T12:17:54.037Z,23.20
2018-04-17T12:20:22.253Z,23.10
2018-04-17T12:22:50.677Z,23.20
2018-04-17T12:25:18.852Z,23.30
2018-04-17T12:27:47.018Z,23.70
2018-04-17T12:30:15.357Z,24.40
2018-04-17T12:32:44.440Z,25.00
2018-04-17T12:35:13.560Z,25.20
2018-04-17T12:37:42.690Z,25.40
2018-04-17T12:40:10.857Z,25.30
2018-04-17T12:42:39.853Z,25.40
2018-04-17T12:45:08.433Z,25.40
2018-04-17T12:47:36.620Z,25.60
2018-04-17T12:50:04.822Z,26.00
2018-04-17T12:52:33.913Z,26.60
2018-04-17T12:55:02.170Z,26.50
2018-04-17T12:57:31.111Z,27.30
2018-04-17T12:59:59.289Z,27.20
2018-04-17T13:02:27.468Z,27.40
2018-04-17T13:04:55.642Z,27.00
2018-04-17T13:07:23.935Z,26.80
2018-04-17T13:09:52.111Z,26.80
2018-04-17T13:12:20.285Z,26.20
2018-04-17T13:14:48.458Z,25.80
2018-04-17T13:17:16.639Z,25.60
2018-04-17T13:19:44.815Z,25.30
2018-04-17T13:22:16.813Z,25.30
2018-04-17T13:24:44.997Z,25.50
2018-04-17T13:27:13.170Z,25.70
2018-04-17T13:29:41.334Z,25.60
2018-04-17T13:32:09.560Z,25.50
2018-04-17T13:34:37.730Z,25.30
2018-04-17T13:37:06.657Z,24.90
2018-04-17T13:39:34.860Z,24.90
2018-04-17T13:42:03.342Z,24.90
2018-04-17T13:44:31.516Z,25.30
2018-04-17T13:46:59.682Z,26.70
2018-04-17T13:49:27.858Z,28.40
2018-04-17T13:51:56.022Z,28.40
2018-04-17T13:54:24.214Z,27.80
2018-04-17T13:56:52.390Z,27.00
2018-04-17T13:59:20.568Z,26.60
2018-04-17T14:01:49.522Z,28.90
2018-04-17T14:04:17.702Z,28.80
2018-04-17T14:06:45.882Z,28.40
2018-04-17T14:09:14.053Z,27.80
2018-04-17T14:11:43.006Z,27.10
2018-04-17T14:14:11.180Z,27.00
2018-04-17T14:16:39.355Z,26.10
2018-04-17T14:19:07.605Z,25.20
2018-04-17T14:21:36.554Z,24.40
2018-04-17T14:24:04.729Z,24.40
2018-04-17T14:26:32.905Z,24.30
2018-04-17T14:29:01.085Z,24.20
2018-04-17T14:31:29.274Z,24.10
2018-04-17T14:33:57.460Z,24.10
2018-04-17T14:36:25.632Z,23.90
2018-04-17T14:38:53.910Z,23.70
2018-04-17T14:41:22.080Z,23.70
2018-04-17T14:43:50.253Z,23.50
2018-04-17T14:46:18.463Z,23.40
2018-04-17T14:48:47.410Z,23.00
2018-04-17T14:51:15.581Z,23.00
2018-04-17T14:53:43.756Z,22.90
2018-04-17T14:56:11.924Z,22.80
2018-04-17T14:58:40.089Z,22.80
2018-04-17T15:01:08.267Z,22.70
2018-04-17T15:03:36.453Z,22.70
2018-04-17T15:06:04.629Z,22.80
2018-04-17T15:08:32.832Z,23.50
2018-04-17T15:11:01.011Z,24.90
2018-04-17T15:13:29.948Z,26.80
2018-04-17T15:15:58.113Z,26.70
2018-04-17T15:18:26.289Z,27.50
2018-04-17T15:20:54.489Z,28.10
2018-04-17T15:23:22.671Z,28.70
2018-04-17T15:25:50.846Z,29.20
2018-04-17T15:28:19.021Z,29.40
2018-04-17T15:30:47.201Z,29.70
2018-04-17T15:33:15.365Z,29.00
2018-04-17T15:35:43.532Z,28.50
2018-04-17T15:38:11.737Z,28.10
2018-04-17T15:40:40.689Z,27.70
2018-04-17T15:43:08.862Z,27.60
2018-04-17T15:45:37.051Z,27.70
2018-04-17T15:48:05.216Z,27.50
2018-04-17T15:50:33.393Z,27.30
2018-04-17T15:53:01.597Z,27.60
2018-04-17T15:55:29.885Z,27.70
2018-04-17T15:57:58.053Z,27.70
2018-04-17T16:00:26.215Z,27.50
2018-04-17T16:02:54.389Z,27.50
2018-04-17T16:05:22.582Z,27.50
2018-04-17T16:07:50.774Z,27.50
2018-04-17T16:10:19.726Z,27.20
2018-04-17T16:12:47.921Z,27.20
2018-04-17T16:15:16.093Z,27.10
2018-04-17T16:17:44.281Z,27.10
2018-04-17T16:20:13.259Z,27.20
2018-04-17T16:22:41.500Z,27.10
2018-04-17T16:25:09.673Z,26.90
2018-04-17T16:27:37.881Z,26.60
2018-04-17T16:30:06.073Z,26.20
2018-04-17T16:32:35.023Z,25.80
2018-04-17T16:35:03.195Z,25.70
2018-04-17T16:37:31.369Z,25.70
2018-04-17T16:39:59.543Z,25.60
2018-04-17T16:42:27.702Z,25.60
2018-04-17T16:44:55.899Z,25.60
2018-04-17T16:47:24.081Z,25.50
2018-04-17T16:49:52.259Z,25.50
2018-04-17T16:52:22.320Z,25.40
2018-04-17T16:54:51.257Z,25.10
2018-04-17T16:57:19.433Z,25.10
2018-04-17T16:59:47.616Z,25.00
2018-04-17T17:02:15.786Z,24.70
2018-04-17T17:04:43.957Z,24.40
2018-04-17T17:07:12.125Z,24.20
2018-04-17T17:09:40.357Z,24.00
2018-04-17T17:12:09.298Z,23.30
2018-04-17T17:14:37.476Z,23.30
2018-04-17T17:17:05.669Z,23.10
2018-04-17T17:19:33.937Z,22.80
2018-04-17T17:22:02.268Z,22.50
2018-04-17T17:24:30.576Z,22.30
2018-04-17T17:26:58.749Z,22.10
2018-04-17T17:29:26.957Z,21.80
2018-04-17T17:31:55.132Z,21.50
2018-04-17T17:34:23.318Z,21.30
2018-04-17T17:36:52.262Z,20.90
2018-04-17T17:39:20.469Z,20.90
2018-04-17T17:41:48.670Z,20.80
2018-04-17T17:44:17.609Z,20.50
2018-04-17T17:46:45.800Z,20.40
2018-04-17T17:49:13.990Z,20.40
2018-04-17T17:51:42.189Z,20.30
2018-04-17T17:54:11.150Z,20.00
2018-04-17T17:56:39.356Z,20.00
2018-04-17T17:59:08.319Z,19.80
2018-04-17T18:01:36.502Z,19.80
2018-04-17T18:04:04.687Z,19.70
2018-04-17T18:06:32.868Z,19.60
2018-04-17T18:09:01.824Z,19.50
2018-04-17T18:11:30.011Z,19.40
2018-04-17T18:13:58.190Z,19.40
2018-04-17T18:16:26.385Z,19.40
2018-04-17T18:18:55.318Z,19.20
2018-04-17T18:21:23.492Z,19.10
2018-04-17T18:23:51.674Z,19.10
2018-04-17T18:26:19.849Z,19.00
2018-04-17T18:28:48.032Z,19.00
2018-04-17T18:31:16.198Z,18.80
2018-04-17T18:33:44.385Z,18.80
2018-04-17T18:36:12.582Z,18.70
2018-04-17T18:38:40.763Z,18.60
2018-04-17T18:41:08.942Z,18.60
2018-04-17T18:43:37.171Z,18.50
2018-04-17T18:46:05.369Z,18.40
2018-04-17T18:48:33.568Z,18.30
2018-04-17T18:51:01.750Z,18.20
2018-04-17T18:53:30.734Z,18.10
2018-04-17T18:55:58.913Z,18.00
2018-04-17T18:58:27.084Z,18.00
2018-04-17T19:00:56.030Z,17.80
2018-04-17T19:03:24.227Z,17.70
2018-04-17T19:05:52.398Z,17.70
2018-04-17T19:08:20.571Z,17.60
2018-04-17T19:10:48.759Z,17.50
2018-04-17T19:13:16.950Z,17.40
2018-04-17T19:15:45.127Z,17.30
2018-04-17T19:18:14.081Z,17.20
2018-04-17T19:20:42.337Z,17.10
2018-04-17T19:23:10.508Z,17.10
2018-04-17T19:25:38.680Z,17.10
2018-04-17T19:28:06.855Z,17.00
2018-04-17T19:30:35.078Z,17.00
2018-04-17T19:33:03.357Z,16.90
2018-04-17T19:35:32.487Z,16.80
2018-04-17T19:38:01.477Z,16.80
2018-04-17T19:40:30.461Z,16.70
2018-04-17T19:42:59.568Z,16.70
2018-04-17T19:45:28.524Z,16.60
2018-04-17T19:47:57.553Z,16.50
2018-04-17T19:50:26.486Z,16.50
2018-04-17T19:52:54.668Z,16.40
2018-04-17T19:55:22.863Z,16.40
2018-04-17T19:57:51.063Z,16.30
2018-04-17T20:00:20.000Z,16.20
2018-04-17T20:02:48.253Z,16.10
2018-04-17T20:05:16.423Z,16.20
2018-04-17T20:07:44.611Z,16.10
2018-04-17T20:10:12.782Z,16.10
2018-04-17T20:12:40.957Z,16.00
2018-04-17T20:15:09.150Z,16.00
2018-04-17T20:17:37.338Z,15.90
2018-04-17T20:20:05.576Z,15.90
2018-04-17T20:22:34.544Z,15.80
2018-04-17T20:25:03.532Z,15.80
2018-04-17T20:27:31.718Z,15.80
2018-04-17T20:30:00.662Z,15.70
2018-04-17T20:32:28.843Z,15.70
2018-04-17T20:34:57.023Z,15.60
2018-04-17T20:37:25.239Z,15.60
2018-04-17T20:39:54.226Z,15.40
2018-04-17T20:42:23.169Z,15.40
2018-04-17T20:44:51.381Z,15.30
2018-04-17T20:47:19.722Z,15.30
2018-04-17T20:49:47.929Z,15.30
2018-04-17T20:52:16.886Z,15.30
2018-04-17T20:54:45.069Z,15.20
2018-04-17T20:57:13.259Z,15.20
2018-04-17T20:59:41.434Z,15.10
2018-04-17T21:02:09.620Z,15.10
2018-04-17T21:04:37.797Z,15.10
2018-04-17T21:07:05.966Z,15.10
2018-04-17T21:09:34.157Z,15.10
2018-04-17T21:12:02.329Z,15.00
2018-04-17T21:14:30.509Z,15.00
2018-04-17T21:16:59.482Z,14.90
2018-04-17T21:19:27.676Z,14.80
2018-04-17T21:21:55.868Z,14.80
2018-04-17T21:24:24.822Z,14.70
2018-04-17T21:26:53.019Z,14.70
2018-04-17T21:29:21.962Z,14.70
2018-04-17T21:31:50.190Z,14.60
2018-04-17T21:34:19.141Z,14.60
2018-04-17T21:36:47.313Z,14.60
2018-04-17T21:39:15.499Z,14.60
2018-04-17T21:41:43.671Z,14.50
2018-04-17T21:44:11.877Z,14.40
2018-04-17T21:46:40.057Z,14.40
2018-04-17T21:49:08.997Z,14.40
2018-04-17T21:51:37.171Z,14.30
2018-04-17T21:54:05.350Z,14.40
2018-04-17T21:56:33.532Z,14.30
2018-04-17T21:59:01.723Z,14.30
2018-04-17T22:01:29.935Z,14.30
2018-04-17T22:03:58.130Z,14.20
2018-04-17T22:06:26.337Z,14.20
2018-04-17T22:08:54.545Z,14.20
2018-04-17T22:11:23.507Z,14.10
2018-04-17T22:13:51.709Z,14.10
2018-04-17T22:16:19.881Z,14.10
2018-04-17T22:18:48.059Z,14.10
2018-04-17T22:21:16.237Z,14.00
2018-04-17T22:23:45.204Z,13.90
2018-04-17T22:26:13.375Z,13.90
2018-04-17T22:28:41.553Z,13.90
2018-04-17T22:31:09.738Z,13.90
2018-04-17T22:33:37.955Z,13.80
2018-04-17T22:36:06.124Z,13.80
2018-04-17T22:38:35.074Z,13.80
2018-04-17T22:41:03.264Z,13.70
2018-04-17T22:43:31.487Z,13.80
2018-04-17T22:45:59.685Z,13.70
2018-04-17T22:48:27.888Z,13.70
2018-04-17T22:50:56.178Z,13.70
2018-04-17T22:53:25.148Z,13.60
2018-04-17T22:55:53.369Z,13.50
2018-04-17T22:58:21.552Z,13.50
2018-04-17T23:00:49.728Z,13.50
2018-04-17T23:03:17.910Z,13.50
2018-04-17T23:05:46.077Z,13.40
2018-04-17T23:08:14.263Z,13.40
2018-04-17T23:10:42.433Z,13.30
2018-04-17T23:13:10.598Z,13.30
2018-04-17T23:15:38.769Z,13.30
2018-04-17T23:18:06.955Z,13.30
2018-04-17T23:20:35.124Z,13.20
2018-04-17T23:23:03.292Z,13.20
2018-04-17T23:25:31.466Z,13.10
2018-04-17T23:27:59.637Z,13.10
2018-04-17T23:30:27.817Z,13.10
2018-04-17T23:32:56.024Z,13.10
2018-04-17T23:35:24.260Z,13.10
2018-04-17T23:37:52.405Z,13.00
2018-04-17T23:40:20.585Z,13.00
2018-04-17T23:42:49.545Z,12.90
2018-04-17T23:45:17.718Z,12.90
2018-04-17T23:47:45.922Z,12.90
2018-04-17T23:50:14.099Z,12.90
2018-04-17T23:52:42.277Z,12.90
2018-04-17T23:55:10.464Z,12.90
2018-04-17T23:57:39.397Z,12.80
